createdAt,value
2023-03-26T00:01:19.263Z,6.70
2023-03-26T00:03:47.079Z,6.70
2023-03-26T00:06:16.569Z,6.70
2023-03-26T00:08:47.660Z,6.70
2023-03-26T00:11:16.254Z,6.70
2023-03-26T00:13:45.380Z,6.70
2023-03-26T00:16:15.119Z,6.70
2023-03-26T00:18:42.743Z,6.80
2023-03-26T00:21:13.583Z,6.80
2023-03-26T00:23:41.530Z,6.90
2023-03-26T00:26:11.490Z,6.90
2023-03-26T00:28:40.345Z,6.90
2023-03-26T00:31:09.875Z,6.90
2023-03-26T00:33:38.532Z,6.90
2023-03-26T00:36:09.887Z,6.80
2023-03-26T00:38:38.964Z,6.80
2023-03-26T00:41:07.941Z,6.80
2023-03-26T00:43:35.893Z,6.80
2023-03-26T00:46:02.997Z,6.80
2023-03-26T00:48:44.130Z,6.80
2023-03-26T00:51:15.503Z,6.80
2023-03-26T00:53:44.146Z,6.90
2023-03-26T00:56:11.241Z,6.90
2023-03-26T00:58:42.222Z,6.80
2023-03-26T01:01:15.832Z,6.80
2023-03-26T01:03:56.701Z,6.70
2023-03-26T01:06:27.796Z,6.70
2023-03-26T01:09:00.202Z,6.70
2023-03-26T01:11:31.881Z,6.60
2023-03-26T01:14:07.227Z,6.70
2023-03-26T01:16:33.820Z,6.70
2023-03-26T01:19:01.006Z,6.60
2023-03-26T01:21:30.428Z,6.70
2023-03-26T01:24:05.128Z,6.70
2023-03-26T01:26:43.174Z,6.70
2023-03-26T01:29:27.725Z,6.60
2023-03-26T01:32:30.834Z,6.60
2023-03-26T01:35:12.299Z,6.50
2023-03-26T01:38:12.066Z,6.50
2023-03-26T01:41:04.796Z,6.50
2023-03-26T01:43:53.261Z,6.50
2023-03-26T01:46:22.325Z,6.60
2023-03-26T01:48:49.729Z,6.60
2023-03-26T01:51:29.940Z,6.60
2023-03-26T01:53:58.369Z,6.60
2023-03-26T01:56:50.787Z,6.60
2023-03-26T01:59:26.362Z,6.60
2023-03-26T02:02:11.246Z,6.50
2023-03-26T02:04:57.707Z,6.40
2023-03-26T02:07:38.021Z,6.30
2023-03-26T02:10:29.699Z,6.20
2023-03-26T02:12:58.290Z,6.20
2023-03-26T02:15:25.621Z,6.10
2023-03-26T02:17:53.237Z,6.10
2023-03-26T02:20:20.780Z,6.10
2023-03-26T02:22:48.346Z,6.00
2023-03-26T02:25:17.901Z,6.00
2023-03-26T02:27:45.362Z,6.00
2023-03-26T02:30:16.047Z,6.00
2023-03-26T02:32:43.790Z,5.90
2023-03-26T02:35:11.886Z,5.90
2023-03-26T02:37:39.646Z,5.90
2023-03-26T02:40:11.223Z,5.80
2023-03-26T02:42:38.788Z,5.90
2023-03-26T02:45:06.760Z,5.90
2023-03-26T02:47:33.874Z,5.90
2023-03-26T02:50:01.452Z,6.00
2023-03-26T02:52:28.140Z,6.00
2023-03-26T02:54:54.767Z,6.00
2023-03-26T02:57:22.169Z,5.90
2023-03-26T02:59:50.346Z,5.90
2023-03-26T03:02:18.272Z,5.90
2023-03-26T03:04:45.201Z,5.90
2023-03-26T03:07:14.944Z,5.90
2023-03-26T03:09:41.887Z,5.80
2023-03-26T03:12:08.536Z,5.90
2023-03-26T03:14:35.758Z,5.90
2023-03-26T03:17:02.485Z,5.80
2023-03-26T03:19:29.258Z,5.80
2023-03-26T03:21:56.195Z,5.80
2023-03-26T03:24:23.404Z,5.80
2023-03-26T03:26:50.377Z,5.80
2023-03-26T03:29:17.350Z,5.70
2023-03-26T03:31:44.091Z,5.70
2023-03-26T03:34:10.886Z,5.60
2023-03-26T03:36:38.357Z,5.60
2023-03-26T03:39:05.228Z,5.60
2023-03-26T03:41:31.878Z,5.60
2023-03-26T03:43:59.847Z,5.50
2023-03-26T03:46:26.797Z,5.50
2023-03-26T03:48:53.485Z,5.50
2023-03-26T03:51:20.236Z,5.50
2023-03-26T03:53:47.539Z,5.50
2023-03-26T03:56:14.766Z,5.50
2023-03-26T03:58:42.232Z,5.50
2023-03-26T04:01:09.041Z,5.50
2023-03-26T04:03:38.833Z,5.50
2023-03-26T04:06:07.314Z,5.60
2023-03-26T04:08:34.766Z,5.50
2023-03-26T04:11:02.456Z,5.40
2023-03-26T04:13:29.346Z,5.40
2023-03-26T04:15:56.921Z,5.30
2023-03-26T04:18:23.901Z,5.30
2023-03-26T04:20:50.772Z,5.30
2023-03-26T04:23:18.803Z,5.40
2023-03-26T04:25:49.141Z,5.40
2023-03-26T04:28:30.534Z,5.40
2023-03-26T04:31:00.778Z,5.40
2023-03-26T04:33:31.580Z,5.40
2023-03-26T04:36:02.456Z,5.40
2023-03-26T04:38:33.449Z,5.40
2023-03-26T04:41:03.259Z,5.40
2023-03-26T04:43:31.186Z,5.40
2023-03-26T04:45:57.885Z,5.30
2023-03-26T04:48:24.693Z,5.30
2023-03-26T04:50:51.422Z,5.40
2023-03-26T04:53:21.108Z,5.40
2023-03-26T04:56:01.397Z,5.40
2023-03-26T04:58:30.157Z,5.40
2023-03-26T05:00:57.411Z,5.40
2023-03-26T05:03:25.654Z,5.40
2023-03-26T05:05:52.617Z,5.40
2023-03-26T05:08:19.525Z,5.50
2023-03-26T05:10:46.453Z,5.50
2023-03-26T05:13:13.237Z,5.40
2023-03-26T05:15:39.868Z,5.40
2023-03-26T05:18:08.752Z,5.40
2023-03-26T05:20:35.948Z,5.50
2023-03-26T05:23:02.851Z,5.60
2023-03-26T05:25:29.764Z,5.60
2023-03-26T05:27:56.406Z,5.70
2023-03-26T05:30:23.071Z,5.80
2023-03-26T05:32:50.146Z,5.80
2023-03-26T05:35:17.993Z,5.90
2023-03-26T05:37:46.575Z,5.90
2023-03-26T05:40:16.830Z,5.90
2023-03-26T05:42:44.274Z,5.90
2023-03-26T05:45:12.652Z,6.00
2023-03-26T05:47:39.485Z,6.00
2023-03-26T05:50:07.577Z,6.00
2023-03-26T05:52:34.417Z,6.10
2023-03-26T05:55:01.393Z,6.20
2023-03-26T05:57:30.152Z,6.20
2023-03-26T05:59:56.829Z,6.20
2023-03-26T06:02:23.790Z,6.30
2023-03-26T06:04:51.015Z,6.30
2023-03-26T06:07:19.807Z,6.40
2023-03-26T06:09:46.810Z,6.30
2023-03-26T06:12:14.053Z,6.40
2023-03-26T06:14:42.807Z,6.40
2023-03-26T06:17:10.798Z,6.40
2023-03-26T06:19:37.737Z,6.50
2023-03-26T06:22:05.508Z,6.40
2023-03-26T06:24:32.978Z,6.50
2023-03-26T06:26:59.693Z,6.50
2023-03-26T06:29:26.959Z,6.50
2023-03-26T06:31:53.799Z,6.50
2023-03-26T06:34:20.652Z,6.60
2023-03-26T06:36:48.776Z,6.60
2023-03-26T06:39:16.052Z,6.70
2023-03-26T06:41:42.745Z,6.70
2023-03-26T06:44:09.770Z,6.80
2023-03-26T06:46:36.656Z,6.90
2023-03-26T06:49:03.455Z,6.90
2023-03-26T06:51:30.196Z,7.00
2023-03-26T06:53:56.861Z,7.00
2023-03-26T06:56:23.568Z,7.00
2023-03-26T06:58:50.230Z,7.10
2023-03-26T07:01:17.019Z,7.20
2023-03-26T07:03:43.680Z,7.20
2023-03-26T07:06:10.416Z,7.30
2023-03-26T07:08:37.078Z,7.30
2023-03-26T07:11:03.979Z,7.40
2023-03-26T07:13:30.639Z,7.50
2023-03-26T07:15:57.333Z,7.50
2023-03-26T07:18:24.014Z,7.60
2023-03-26T07:20:51.194Z,7.60
2023-03-26T07:23:20.501Z,7.60
2023-03-26T07:25:48.708Z,7.60
2023-03-26T07:28:33.742Z,7.70
2023-03-26T07:31:09.410Z,7.70
2023-03-26T07:33:51.061Z,7.70
2023-03-26T07:36:39.258Z,7.70
2023-03-26T07:39:14.608Z,7.80
2023-03-26T07:41:58.514Z,7.80
2023-03-26T07:44:53.836Z,7.80
2023-03-26T07:47:27.273Z,7.80
2023-03-26T07:49:55.667Z,7.80
2023-03-26T07:52:22.731Z,7.80
2023-03-26T07:54:49.785Z,7.70
2023-03-26T07:57:58.080Z,7.70
2023-03-26T08:00:42.203Z,7.70
2023-03-26T08:03:30.497Z,7.60
2023-03-26T08:06:24.026Z,7.50
2023-03-26T08:08:58.287Z,7.60
2023-03-26T08:11:48.297Z,7.60
2023-03-26T08:14:26.579Z,7.60
2023-03-26T08:17:11.204Z,7.60
2023-03-26T08:19:44.813Z,7.80
2023-03-26T08:22:17.480Z,7.80
2023-03-26T08:25:01.325Z,7.80
2023-03-26T08:27:31.136Z,7.80
2023-03-26T08:30:05.396Z,7.80
2023-03-26T08:32:32.384Z,7.90
2023-03-26T08:35:00.142Z,8.00
2023-03-26T08:37:27.703Z,8.10
2023-03-26T08:39:54.476Z,8.00
2023-03-26T08:43:04.439Z,8.00
2023-03-26T08:46:04.663Z,8.00
2023-03-26T08:49:09.944Z,8.10
2023-03-26T08:51:45.627Z,8.10
2023-03-26T08:54:48.323Z,8.20
2023-03-26T08:57:38.156Z,8.20
2023-03-26T09:00:42.317Z,8.10
2023-03-26T09:03:35.517Z,8.00
2023-03-26T09:06:41.005Z,8.10
2023-03-26T09:09:33.457Z,8.20
2023-03-26T09:12:38.521Z,8.10
2023-03-26T09:15:21.404Z,8.20
2023-03-26T09:18:12.879Z,8.20
2023-03-26T09:20:48.912Z,8.20
2023-03-26T09:31:34.414Z,8.10
2023-03-26T09:34:01.060Z,8.10
2023-03-26T09:37:02.591Z,8.00
2023-03-26T09:39:43.147Z,8.10
2023-03-26T09:45:00.261Z,8.10
2023-03-26T09:47:39.129Z,8.20
2023-03-26T09:50:43.439Z,8.10
2023-03-26T09:53:42.138Z,8.10
2023-03-26T09:56:43.563Z,7.90
2023-03-26T09:59:55.011Z,7.80
2023-03-26T10:02:45.825Z,7.70
2023-03-26T10:05:21.498Z,7.60
2023-03-26T10:07:58.872Z,7.60
2023-03-26T10:10:49.598Z,7.70
2023-03-26T10:13:34.473Z,7.80
2023-03-26T10:16:07.318Z,7.90
2023-03-26T10:18:48.861Z,7.80
2023-03-26T10:21:33.781Z,8.00
2023-03-26T10:24:25.423Z,8.10
2023-03-26T10:27:16.237Z,8.10
2023-03-26T10:30:01.704Z,8.10
2023-03-26T10:33:01.897Z,8.00
2023-03-26T10:35:47.169Z,8.00
2023-03-26T10:38:16.018Z,7.90
2023-03-26T10:40:48.034Z,7.90
2023-03-26T10:43:32.788Z,7.90
2023-03-26T10:46:11.093Z,7.90
2023-03-26T10:48:50.897Z,7.90
2023-03-26T10:51:46.841Z,7.80
2023-03-26T10:54:38.407Z,7.90
2023-03-26T10:57:39.419Z,7.90
2023-03-26T11:00:15.589Z,7.90
2023-03-26T11:03:00.555Z,7.90
2023-03-26T11:06:00.959Z,7.90
2023-03-26T11:08:45.401Z,7.80
2023-03-26T11:11:30.207Z,7.80
2023-03-26T11:14:07.948Z,7.80
2023-03-26T11:17:15.160Z,7.80
2023-03-26T11:20:04.882Z,7.80
2023-03-26T11:22:42.753Z,7.80
2023-03-26T11:25:21.917Z,7.80
2023-03-26T11:28:12.237Z,7.80
2023-03-26T11:30:42.624Z,7.90
2023-03-26T11:33:16.783Z,7.90
2023-03-26T11:35:48.296Z,8.00
2023-03-26T11:38:50.187Z,8.00
2023-03-26T11:41:30.789Z,8.00
2023-03-26T11:44:02.803Z,8.00
2023-03-26T11:46:32.551Z,8.10
2023-03-26T11:49:02.088Z,8.20
2023-03-26T11:51:35.682Z,8.30
2023-03-26T11:54:04.982Z,8.30
2023-03-26T11:56:41.040Z,8.20
2023-03-26T11:59:33.891Z,8.20
2023-03-26T12:02:09.893Z,8.10
2023-03-26T12:04:43.238Z,8.00
2023-03-26T12:07:33.754Z,8.00
2023-03-26T12:10:17.967Z,7.90
2023-03-26T12:12:47.973Z,8.00
2023-03-26T12:15:20.242Z,8.10
2023-03-26T12:17:53.640Z,8.20
2023-03-26T12:20:26.407Z,8.30
2023-03-26T12:22:59.216Z,8.40
2023-03-26T12:25:37.410Z,8.40
2023-03-26T12:28:18.057Z,8.40
2023-03-26T12:31:05.552Z,8.60
2023-03-26T12:33:35.059Z,8.60
2023-03-26T12:36:29.190Z,8.70
2023-03-26T12:40:06.135Z,8.90
2023-03-26T12:43:40.642Z,9.00
2023-03-26T12:44:56.401Z,9.00
2023-03-26T12:47:59.882Z,9.00
2023-03-26T12:50:15.889Z,9.00
2023-03-26T12:53:02.835Z,9.00
2023-03-26T12:56:02.278Z,9.10
2023-03-26T12:59:03.896Z,9.20
2023-03-26T13:01:39.196Z,9.30
2023-03-26T13:04:30.384Z,9.40
2023-03-26T13:07:20.882Z,9.40
2023-03-26T13:09:56.627Z,9.30
2023-03-26T13:12:26.352Z,9.30
2023-03-26T13:15:03.124Z,9.30
2023-03-26T13:17:52.078Z,9.40
2023-03-26T13:20:47.813Z,9.50
2023-03-26T13:23:34.372Z,9.50
2023-03-26T13:26:07.228Z,9.50
2023-03-26T13:28:59.935Z,9.40
2023-03-26T13:32:01.214Z,9.40
2023-03-26T13:34:56.566Z,9.40
2023-03-26T13:37:35.279Z,9.40
2023-03-26T13:40:25.801Z,9.40
2023-03-26T13:43:29.349Z,9.40
2023-03-26T13:46:20.881Z,9.40
2023-03-26T13:48:51.063Z,9.50
2023-03-26T13:51:27.137Z,9.40
2023-03-26T13:54:28.620Z,9.50
2023-03-26T13:57:05.457Z,9.40
2023-03-26T13:59:37.959Z,9.40
2023-03-26T14:02:11.932Z,9.50
2023-03-26T14:04:46.440Z,9.50
2023-03-26T14:07:52.349Z,9.60
2023-03-26T14:10:27.490Z,9.60
2023-03-26T14:13:16.186Z,9.50
2023-03-26T14:16:25.521Z,9.50
2023-03-26T14:19:12.267Z,9.60
2023-03-26T14:21:51.641Z,9.60
2023-03-26T14:24:47.122Z,9.50
2023-03-26T14:27:51.362Z,9.50
2023-03-26T14:30:20.839Z,9.50
2023-03-26T14:33:07.237Z,9.30
2023-03-26T14:35:43.377Z,8.60
2023-03-26T14:38:34.499Z,8.20
2023-03-26T14:41:23.829Z,8.10
2023-03-26T14:44:48.390Z,8.00
2023-03-26T14:47:21.576Z,8.00
2023-03-26T14:50:15.711Z,8.00
2023-03-26T14:52:48.672Z,7.90
2023-03-26T14:55:38.718Z,8.00
2023-03-26T14:58:27.901Z,8.10
2023-03-26T15:01:23.016Z,8.20
2023-03-26T15:04:38.382Z,8.20
2023-03-26T15:07:30.247Z,8.20
2023-03-26T15:10:16.916Z,8.20
2023-03-26T15:13:03.423Z,8.20
2023-03-26T15:16:09.508Z,8.20
2023-03-26T15:19:00.175Z,8.10
2023-03-26T15:21:32.767Z,8.10
2023-03-26T15:24:14.408Z,8.10
2023-03-26T15:26:47.123Z,8.20
2023-03-26T15:29:36.952Z,8.30
2023-03-26T15:32:26.052Z,8.30
2023-03-26T15:35:02.771Z,8.20
2023-03-26T15:38:05.216Z,8.10
2023-03-26T15:40:47.207Z,8.20
2023-03-26T15:43:16.283Z,8.20
2023-03-26T15:45:53.854Z,8.10
2023-03-26T15:48:51.490Z,8.00
2023-03-26T15:51:24.313Z,7.90
2023-03-26T15:54:16.483Z,7.80
2023-03-26T15:56:57.954Z,7.70
2023-03-26T15:59:37.187Z,7.70
2023-03-26T16:02:07.633Z,7.70
2023-03-26T16:04:52.434Z,7.70
2023-03-26T16:07:47.918Z,7.70
2023-03-26T16:10:38.504Z,7.80
2023-03-26T16:13:18.199Z,7.80
2023-03-26T16:16:18.116Z,7.90
2023-03-26T16:18:58.422Z,7.90
2023-03-26T16:21:32.807Z,8.00
2023-03-26T16:24:02.886Z,8.30
2023-03-26T16:26:45.305Z,8.40
2023-03-26T16:29:28.564Z,8.40
2023-03-26T16:32:16.217Z,8.30
2023-03-26T16:34:58.106Z,8.30
2023-03-26T16:37:37.091Z,8.20
2023-03-26T16:40:22.309Z,8.20
2023-03-26T16:43:03.605Z,8.00
2023-03-26T16:45:48.676Z,7.90
2023-03-26T16:48:21.648Z,7.90
2023-03-26T16:51:03.423Z,7.80
2023-03-26T16:53:48.456Z,7.80
2023-03-26T16:56:17.902Z,7.80
2023-03-26T16:58:59.210Z,7.70
2023-03-26T17:01:28.578Z,7.70
2023-03-26T17:04:24.734Z,7.70
2023-03-26T17:07:13.825Z,7.70
2023-03-26T17:09:52.750Z,7.70
2023-03-26T17:12:41.039Z,7.70
2023-03-26T17:15:16.555Z,7.70
2023-03-26T17:18:46.214Z,7.70
2023-03-26T17:21:26.052Z,7.70
2023-03-26T17:24:04.082Z,7.70
2023-03-26T17:26:52.154Z,7.70
2023-03-26T17:29:28.218Z,7.60
2023-03-26T17:32:12.274Z,7.60
2023-03-26T17:34:39.046Z,7.60
2023-03-26T17:37:26.424Z,7.60
2023-03-26T17:39:53.058Z,7.50
2023-03-26T17:42:26.931Z,7.50
2023-03-26T17:45:09.114Z,7.50
2023-03-26T17:47:44.187Z,7.50
2023-03-26T17:50:19.754Z,7.50
2023-03-26T17:53:16.796Z,7.50
2023-03-26T17:55:44.744Z,7.50
2023-03-26T17:58:32.734Z,7.50
2023-03-26T18:01:27.046Z,7.60
2023-03-26T18:04:00.474Z,7.60
2023-03-26T18:06:39.220Z,7.80
2023-03-26T18:09:23.764Z,7.90
2023-03-26T18:12:09.213Z,7.80
2023-03-26T18:14:38.719Z,7.70
2023-03-26T18:17:06.321Z,7.60
2023-03-26T18:19:47.980Z,7.50
2023-03-26T18:22:26.494Z,7.40
2023-03-26T18:24:59.711Z,7.30
2023-03-26T18:27:35.978Z,7.00
2023-03-26T18:30:16.241Z,6.90
2023-03-26T18:33:00.076Z,6.80
2023-03-26T18:35:36.375Z,6.70
2023-03-26T18:38:03.654Z,6.60
2023-03-26T18:40:42.000Z,6.50
2023-03-26T18:43:25.369Z,6.50
2023-03-26T18:46:02.373Z,6.40
2023-03-26T18:48:29.500Z,6.30
2023-03-26T18:51:06.085Z,6.20
2023-03-26T18:53:45.504Z,6.20
2023-03-26T18:56:19.759Z,6.10
2023-03-26T18:58:51.638Z,6.10
2023-03-26T19:01:25.871Z,6.10
2023-03-26T19:03:54.195Z,6.00
2023-03-26T19:06:21.938Z,6.00
2023-03-26T19:08:49.654Z,6.00
2023-03-26T19:11:17.992Z,5.90
2023-03-26T19:13:49.906Z,5.90
2023-03-26T19:16:16.599Z,5.90
2023-03-26T19:18:44.179Z,5.90
2023-03-26T19:21:11.112Z,5.90
2023-03-26T19:23:41.072Z,5.90
2023-03-26T19:26:10.742Z,5.90
2023-03-26T19:28:48.945Z,5.80
2023-03-26T19:31:15.659Z,5.80
2023-03-26T19:33:43.925Z,5.80
2023-03-26T19:36:14.465Z,5.80
2023-03-26T19:39:24.224Z,5.80
2023-03-26T19:41:57.772Z,5.80
2023-03-26T19:44:30.164Z,5.70
2023-03-26T19:47:24.938Z,5.70
2023-03-26T19:50:03.844Z,5.70
2023-03-26T19:52:36.664Z,5.70
2023-03-26T19:55:15.277Z,5.60
2023-03-26T19:57:43.124Z,5.70
2023-03-26T20:00:14.156Z,5.70
2023-03-26T20:02:42.479Z,5.60
2023-03-26T20:05:22.939Z,5.60
2023-03-26T20:07:50.307Z,5.60
2023-03-26T20:10:17.197Z,5.60
2023-03-26T20:12:44.090Z,5.60
2023-03-26T20:15:32.347Z,5.60
2023-03-26T20:18:00.904Z,5.60
2023-03-26T20:20:28.107Z,5.60
2023-03-26T20:22:54.946Z,5.60
2023-03-26T20:25:30.943Z,5.70
2023-03-26T20:27:58.989Z,5.60
2023-03-26T20:33:11.861Z,5.60
2023-03-26T20:35:40.622Z,5.60
2023-03-26T20:38:09.604Z,5.60
2023-03-26T20:40:37.381Z,5.50
2023-03-26T20:43:06.676Z,5.50
2023-03-26T20:45:33.397Z,5.40
2023-03-26T20:48:02.615Z,5.40
2023-03-26T20:50:31.646Z,5.40
2023-03-26T20:53:00.681Z,5.50
2023-03-26T20:55:28.333Z,5.50
2023-03-26T20:57:55.292Z,5.50
2023-03-26T21:00:23.482Z,5.60
2023-03-26T21:02:54.713Z,5.60
2023-03-26T21:05:26.947Z,5.60
2023-03-26T21:07:58.118Z,5.70
2023-03-26T21:10:27.050Z,5.70
2023-03-26T21:13:00.282Z,5.70
2023-03-26T21:15:27.931Z,5.80
2023-03-26T21:17:55.419Z,5.80
2023-03-26T21:20:24.132Z,5.80
2023-03-26T21:23:08.953Z,5.80
2023-03-26T21:25:41.544Z,5.80
2023-03-26T21:28:16.263Z,5.80
2023-03-26T21:30:43.902Z,5.90
2023-03-26T21:33:10.704Z,5.80
2023-03-26T21:35:38.380Z,5.90
2023-03-26T21:38:06.297Z,5.90
2023-03-26T21:40:33.386Z,5.80
2023-03-26T21:43:00.459Z,5.80
2023-03-26T21:45:27.868Z,5.80
2023-03-26T21:47:55.064Z,5.80
2023-03-26T21:50:23.565Z,5.90
2023-03-26T21:52:51.675Z,5.90
2023-03-26T21:55:23.020Z,5.80
2023-03-26T21:58:21.932Z,5.80
2023-03-26T22:01:16.721Z,5.80
2023-03-26T22:03:56.046Z,5.80
2023-03-26T22:06:49.782Z,5.80
2023-03-26T22:09:20.717Z,5.80
2023-03-26T22:11:53.168Z,5.80
2023-03-26T22:14:20.634Z,5.80
2023-03-26T22:16:47.455Z,5.70
2023-03-26T22:19:14.354Z,5.60
2023-03-26T22:21:41.103Z,5.60
2023-03-26T22:24:08.538Z,5.60
2023-03-26T22:26:37.365Z,5.60
2023-03-26T22:29:06.382Z,5.60
2023-03-26T22:31:33.158Z,5.60
2023-03-26T22:33:59.969Z,5.60
2023-03-26T22:36:27.380Z,5.60
2023-03-26T22:38:55.244Z,5.60
2023-03-26T22:41:22.805Z,5.60
2023-03-26T22:43:52.206Z,5.60
2023-03-26T22:46:19.479Z,5.60
2023-03-26T22:48:48.230Z,5.60
2023-03-26T22:51:15.365Z,5.70
2023-03-26T22:53:42.094Z,5.70
2023-03-26T22:56:09.441Z,5.70
2023-03-26T22:58:36.436Z,5.70
2023-03-26T23:01:08.424Z,5.70
2023-03-26T23:03:36.876Z,5.60
2023-03-26T23:06:06.879Z,5.60
2023-03-26T23:08:35.130Z,5.60
2023-03-26T23:11:02.287Z,5.60
2023-03-26T23:13:28.945Z,5.60
2023-03-26T23:15:57.093Z,5.60
2023-03-26T23:18:24.603Z,5.60
2023-03-26T23:20:53.039Z,5.60
2023-03-26T23:23:24.074Z,5.60
2023-03-26T23:25:51.892Z,5.60
2023-03-26T23:28:18.733Z,5.60
2023-03-26T23:30:48.960Z,5.60
2023-03-26T23:33:15.888Z,5.50
2023-03-26T23:35:44.206Z,5.50
2023-03-26T23:38:13.066Z,5.50
2023-03-26T23:40:40.821Z,5.50
2023-03-26T23:43:07.503Z,5.50
2023-03-26T23:45:34.197Z,5.40
2023-03-26T23:48:02.399Z,5.40
2023-03-26T23:50:29.974Z,5.40
2023-03-26T23:52:58.065Z,5.40
2023-03-26T23:55:28.503Z,5.30
2023-03-26T23:57:55.810Z,5.30
